Billings, New York
Current Conditions -  °F | °C
As of 12:53 PM on Wednesday 28 Jan 2015 (Local Time) from KPOU Reporting Station
Clear Clear  
Wind Chill: -9°   Ceiling: Unl
Heat Index: -3°   Visibility: 10mi
Dew Point: -15°   Wind: 12mph
Humidity: 39%   Direction: 360°N
Pressure: 30.06"   Gusts: NA
Location:  41.67°N, 73.76°W
Report Text: KPOU 281753Z 36010KT 10SM CLR M03/M15 A3006 RMK AO2 SLP180 T10281150 11028 21094 51004
Loading
Personal Weather Stations






























Interactive Weather Map New forecast layout! Learn more

10-Day Weather Forecast

Advertisements
Track Severe Weather on mobile